createdAt,value
2023-07-17T00:00:06.920Z,2.30
2023-07-17T00:02:33.767Z,2.40
2023-07-17T00:05:00.270Z,2.00
2023-07-17T00:07:27.143Z,2.15
2023-07-17T00:09:53.754Z,1.95
2023-07-17T00:12:20.235Z,2.00
2023-07-17T00:14:46.817Z,2.20
2023-07-17T00:17:13.879Z,2.20
2023-07-17T00:19:40.591Z,2.58
2023-07-17T00:22:08.065Z,2.05
2023-07-17T00:24:34.715Z,2.00
2023-07-17T00:27:02.195Z,2.20
2023-07-17T00:29:31.676Z,1.70
2023-07-17T00:31:58.324Z,2.10
2023-07-17T00:34:24.974Z,2.05
2023-07-17T00:36:51.637Z,2.17
2023-07-17T00:39:20.373Z,2.20
2023-07-17T00:41:47.443Z,1.92
2023-07-17T00:44:13.940Z,2.42
2023-07-17T00:46:40.610Z,2.30
2023-07-17T00:49:07.597Z,2.28
2023-07-17T00:51:34.395Z,1.90
2023-07-17T00:54:01.491Z,2.30
2023-07-17T00:56:29.212Z,2.38
2023-07-17T00:58:56.074Z,2.42
2023-07-17T01:01:22.951Z,2.17
2023-07-17T01:03:50.853Z,1.90
2023-07-17T01:06:19.220Z,2.30
2023-07-17T01:08:45.878Z,2.22
2023-07-17T01:11:12.592Z,2.20
2023-07-17T01:13:46.379Z,1.95
2023-07-17T01:16:13.522Z,2.58
2023-07-17T01:18:40.376Z,2.03
2023-07-17T01:21:07.463Z,2.00
2023-07-17T01:23:34.427Z,2.15
2023-07-17T01:26:00.902Z,2.03
2023-07-17T01:28:28.163Z,2.30
2023-07-17T01:30:54.655Z,2.00
2023-07-17T01:33:21.197Z,2.33
2023-07-17T01:35:47.656Z,1.95
2023-07-17T01:38:14.696Z,2.08
2023-07-17T01:40:41.138Z,2.17
2023-07-17T01:43:08.174Z,1.70
2023-07-17T01:45:34.620Z,1.70
2023-07-17T01:48:01.089Z,2.35
2023-07-17T01:50:27.611Z,1.90
2023-07-17T01:52:54.187Z,2.00
2023-07-17T01:55:20.739Z,2.15
2023-07-17T01:57:47.181Z,1.83
2023-07-17T02:00:14.174Z,1.80
2023-07-17T02:02:40.741Z,1.50
2023-07-17T02:05:07.881Z,1.98
2023-07-17T02:07:34.450Z,1.70
2023-07-17T02:10:04.863Z,1.50
2023-07-17T02:12:31.453Z,1.60
2023-07-17T02:14:59.932Z,1.83
2023-07-17T02:17:26.484Z,1.80
2023-07-17T02:19:52.992Z,1.70
2023-07-17T02:22:20.784Z,2.10
2023-07-17T02:24:47.477Z,1.90
2023-07-17T02:27:13.890Z,1.90
2023-07-17T02:29:40.356Z,1.60
2023-07-17T02:32:07.592Z,2.03
2023-07-17T02:37:00.655Z,1.77
2023-07-17T02:39:27.169Z,2.10
2023-07-17T02:41:53.776Z,2.25
2023-07-17T02:44:20.849Z,2.20
2023-07-17T02:46:47.428Z,2.13
2023-07-17T02:49:15.108Z,1.92
2023-07-17T02:51:42.248Z,2.08
2023-07-17T02:54:08.778Z,1.63
2023-07-17T02:56:35.213Z,1.90
2023-07-17T02:59:01.698Z,1.80
2023-07-17T03:01:29.095Z,1.50
2023-07-17T03:03:55.750Z,2.00
2023-07-17T03:06:22.482Z,1.75
2023-07-17T03:08:49.193Z,1.80
2023-07-17T03:11:15.883Z,1.50
2023-07-17T03:13:42.604Z,1.70
2023-07-17T03:16:09.312Z,1.90
2023-07-17T03:18:35.860Z,2.00
2023-07-17T03:21:02.395Z,2.17
2023-07-17T03:23:29.189Z,2.10
2023-07-17T03:25:57.051Z,2.20
2023-07-17T03:28:23.725Z,2.03
2023-07-17T03:30:50.275Z,1.80
2023-07-17T03:33:17.008Z,1.65
2023-07-17T03:35:46.322Z,2.05
2023-07-17T03:38:14.084Z,1.90
2023-07-17T03:40:40.516Z,2.08
2023-07-17T03:43:06.971Z,2.10
2023-07-17T03:45:33.447Z,2.20
2023-07-17T03:48:02.699Z,2.10
2023-07-17T03:50:31.395Z,2.33
2023-07-17T03:52:57.922Z,2.20
2023-07-17T03:55:24.488Z,2.20
2023-07-17T03:57:50.954Z,1.98
2023-07-17T04:00:17.537Z,2.20
2023-07-17T04:02:44.752Z,2.10
2023-07-17T04:05:31.640Z,2.58
2023-07-17T04:07:58.626Z,2.10
2023-07-17T04:10:25.270Z,2.20
2023-07-17T04:12:51.765Z,2.63
2023-07-17T04:15:18.328Z,2.47
2023-07-17T04:17:44.876Z,2.20
2023-07-17T04:20:11.872Z,2.38
2023-07-17T04:22:38.713Z,2.60
2023-07-17T04:25:05.618Z,2.63
2023-07-17T04:27:32.546Z,2.30
2023-07-17T04:30:00.632Z,2.28
2023-07-17T04:32:27.927Z,2.67
2023-07-17T04:34:54.492Z,2.65
2023-07-17T04:37:21.051Z,2.58
2023-07-17T04:39:47.628Z,2.50
2023-07-17T04:42:14.565Z,2.30
2023-07-17T04:44:41.313Z,2.58
2023-07-17T04:47:08.044Z,2.60
2023-07-17T04:49:35.354Z,2.65
2023-07-17T04:52:02.358Z,2.88
2023-07-17T04:54:29.049Z,2.90
2023-07-17T04:56:56.084Z,2.78
2023-07-17T04:59:23.812Z,2.20
2023-07-17T05:01:50.856Z,3.28
2023-07-17T05:04:17.528Z,3.25
2023-07-17T05:06:44.150Z,2.42
2023-07-17T05:09:11.531Z,3.08
2023-07-17T05:11:38.083Z,3.08
2023-07-17T05:14:04.664Z,3.17
2023-07-17T05:16:31.399Z,2.90
2023-07-17T05:18:57.955Z,2.72
2023-07-17T05:21:24.866Z,2.85
2023-07-17T05:23:51.350Z,3.65
2023-07-17T05:26:22.364Z,3.20
2023-07-17T05:28:50.358Z,2.97
2023-07-17T05:31:17.308Z,3.55
2023-07-17T05:33:44.636Z,3.33
2023-07-17T05:36:11.177Z,3.78
2023-07-17T05:38:38.405Z,3.95
2023-07-17T05:41:07.125Z,3.85
2023-07-17T05:43:33.906Z,3.30
2023-07-17T05:46:06.318Z,2.92
2023-07-17T05:48:33.016Z,3.00
2023-07-17T05:50:59.521Z,2.78
2023-07-17T05:53:26.073Z,2.97
2023-07-17T05:55:53.598Z,2.70
2023-07-17T05:58:20.120Z,2.60
2023-07-17T06:00:47.132Z,2.92
2023-07-17T06:03:13.627Z,2.67
2023-07-17T06:05:40.037Z,2.78
2023-07-17T06:08:07.082Z,2.70
2023-07-17T06:10:33.645Z,2.70
2023-07-17T06:13:00.203Z,2.65
2023-07-17T06:15:27.684Z,3.00
2023-07-17T06:17:54.275Z,2.70
2023-07-17T06:20:21.762Z,2.95
2023-07-17T06:22:48.980Z,3.03
2023-07-17T06:25:15.605Z,3.17
2023-07-17T06:27:42.226Z,3.05
2023-07-17T06:30:08.982Z,2.80
2023-07-17T06:32:35.589Z,2.85
2023-07-17T06:35:02.387Z,2.90
2023-07-17T06:37:28.870Z,3.60
2023-07-17T06:39:55.300Z,3.50
2023-07-17T06:42:21.751Z,2.90
2023-07-17T06:44:48.256Z,3.50
2023-07-17T06:47:29.632Z,3.22
2023-07-17T06:50:01.377Z,3.45
2023-07-17T06:52:28.031Z,3.67
2023-07-17T06:55:03.962Z,3.35
2023-07-17T06:57:32.173Z,3.55
2023-07-17T06:59:58.731Z,3.17
2023-07-17T07:02:25.370Z,3.45
2023-07-17T07:04:51.912Z,3.15
2023-07-17T07:07:19.287Z,3.60
2023-07-17T07:09:46.337Z,3.83
2023-07-17T07:12:12.876Z,4.03
2023-07-17T07:14:39.334Z,3.45
2023-07-17T07:17:05.912Z,3.20
2023-07-17T07:19:32.482Z,3.78
2023-07-17T07:21:58.958Z,3.90
2023-07-17T07:24:25.435Z,3.70
2023-07-17T07:26:51.914Z,3.63
2023-07-17T07:29:18.465Z,3.22
2023-07-17T07:31:45.055Z,3.40
2023-07-17T07:34:11.678Z,3.72
2023-07-17T07:36:38.184Z,3.63
2023-07-17T07:39:06.884Z,3.83
2023-07-17T07:41:34.166Z,3.65
2023-07-17T07:44:00.728Z,3.78
2023-07-17T07:46:27.694Z,3.47
2023-07-17T07:48:54.459Z,3.90
2023-07-17T07:51:20.951Z,3.55
2023-07-17T07:53:47.401Z,3.95
2023-07-17T07:56:13.927Z,3.50
2023-07-17T07:58:40.462Z,3.63
2023-07-17T08:01:06.978Z,3.40
2023-07-17T08:03:34.802Z,3.10
2023-07-17T08:06:01.395Z,3.65
2023-07-17T08:08:27.908Z,3.75
2023-07-17T08:10:54.644Z,4.05
2023-07-17T08:13:21.189Z,3.80
2023-07-17T08:15:48.423Z,3.63
2023-07-17T08:20:41.844Z,3.35
2023-07-17T08:23:08.470Z,3.65
2023-07-17T08:25:35.298Z,3.60
2023-07-17T08:28:01.813Z,4.13
2023-07-17T08:30:28.343Z,3.92
2023-07-17T08:32:54.967Z,3.50
2023-07-17T08:35:21.633Z,3.30
2023-07-17T08:37:48.174Z,3.38
2023-07-17T08:40:14.762Z,3.17
2023-07-17T08:42:44.784Z,3.20
2023-07-17T08:45:12.316Z,3.22
2023-07-17T08:47:38.818Z,3.10
2023-07-17T08:50:05.646Z,3.30
2023-07-17T08:52:32.934Z,3.40
2023-07-17T08:57:27.268Z,3.03
2023-07-17T08:59:55.272Z,3.15
2023-07-17T09:02:22.086Z,3.00
2023-07-17T09:04:48.653Z,2.78
2023-07-17T09:07:15.123Z,2.85
2023-07-17T09:09:41.612Z,3.00
2023-07-17T09:12:09.138Z,3.28
2023-07-17T09:14:36.134Z,3.20
2023-07-17T09:17:08.661Z,3.55
2023-07-17T09:19:36.499Z,3.80
2023-07-17T09:22:03.724Z,3.20
2023-07-17T09:24:30.475Z,2.97
2023-07-17T09:26:57.705Z,3.30
2023-07-17T09:31:51.629Z,3.55
2023-07-17T09:34:18.303Z,3.33
2023-07-17T09:36:44.740Z,3.58
2023-07-17T09:39:12.176Z,3.25
2023-07-17T09:41:38.679Z,2.90
2023-07-17T09:44:05.857Z,3.40
2023-07-17T09:48:59.256Z,3.05
2023-07-17T09:51:26.224Z,2.85
2023-07-17T09:53:52.943Z,2.80
2023-07-17T09:56:20.106Z,3.03
2023-07-17T09:58:51.882Z,2.83
2023-07-17T10:01:24.191Z,3.20
2023-07-17T10:03:51.704Z,3.00
2023-07-17T10:06:19.385Z,3.10
2023-07-17T10:08:47.683Z,3.00
2023-07-17T10:11:15.971Z,2.97
2023-07-17T10:13:44.048Z,2.60
2023-07-17T10:16:11.068Z,2.60
2023-07-17T10:18:46.349Z,2.72
2023-07-17T10:21:14.801Z,2.30
2023-07-17T10:23:42.840Z,2.42
2023-07-17T10:26:09.566Z,2.10
2023-07-17T10:28:37.292Z,2.78
2023-07-17T10:31:09.632Z,2.80
2023-07-17T10:33:36.875Z,2.75
2023-07-17T10:36:03.526Z,2.15
2023-07-17T10:38:31.911Z,2.45
2023-07-17T10:41:05.616Z,2.45
2023-07-17T10:43:33.245Z,2.20
2023-07-17T10:46:00.039Z,2.35
2023-07-17T10:48:27.159Z,2.33
2023-07-17T10:50:54.985Z,2.78
2023-07-17T10:53:22.152Z,2.92
2023-07-17T10:55:48.805Z,2.42
2023-07-17T10:58:15.380Z,3.13
2023-07-17T11:00:43.345Z,2.85
2023-07-17T11:03:10.389Z,3.10
2023-07-17T11:05:37.805Z,3.05
2023-07-17T11:08:05.070Z,2.80
2023-07-17T11:13:01.586Z,2.65
2023-07-17T11:15:28.026Z,2.47
2023-07-17T11:17:54.601Z,2.70
2023-07-17T11:20:21.169Z,2.47
2023-07-17T11:22:47.866Z,2.65
2023-07-17T11:25:14.408Z,2.80
2023-07-17T11:27:41.838Z,2.60
2023-07-17T11:30:16.004Z,2.83
2023-07-17T11:32:42.967Z,3.10
2023-07-17T11:35:09.625Z,2.95
2023-07-17T11:37:38.543Z,3.03
2023-07-17T11:40:06.717Z,2.60
2023-07-17T11:42:51.972Z,3.00
2023-07-17T11:45:20.476Z,3.00
2023-07-17T11:47:47.202Z,2.53
2023-07-17T11:50:13.736Z,2.78
2023-07-17T11:52:40.266Z,3.10
2023-07-17T11:55:07.173Z,3.00
2023-07-17T11:57:33.647Z,3.42
2023-07-17T12:00:04.622Z,2.95
2023-07-17T12:02:38.424Z,2.90
2023-07-17T12:05:05.160Z,2.63
2023-07-17T12:07:31.699Z,3.13
2023-07-17T12:09:58.301Z,3.35
2023-07-17T12:12:24.955Z,3.50
2023-07-17T12:14:51.602Z,3.50
2023-07-17T12:17:18.704Z,2.95
2023-07-17T12:19:45.211Z,3.80
2023-07-17T12:24:41.646Z,4.18
2023-07-17T12:27:08.525Z,3.63
2023-07-17T12:29:35.104Z,3.45
2023-07-17T12:32:01.782Z,3.10
2023-07-17T12:34:28.327Z,3.75
2023-07-17T12:36:55.412Z,3.17
2023-07-17T12:39:23.639Z,3.20
2023-07-17T12:41:50.314Z,2.95
2023-07-17T12:44:16.879Z,3.15
2023-07-17T12:46:44.405Z,2.90
2023-07-17T12:49:13.191Z,3.10
2023-07-17T12:51:39.774Z,2.95
2023-07-17T12:54:06.918Z,2.90
2023-07-17T12:59:00.013Z,2.70
2023-07-17T13:01:26.537Z,2.70
2023-07-17T13:03:53.181Z,2.80
2023-07-17T13:06:21.621Z,3.05
2023-07-17T13:08:48.724Z,3.00
2023-07-17T13:11:15.920Z,2.83
2023-07-17T13:16:09.119Z,2.55
2023-07-17T13:18:36.300Z,2.80
2023-07-17T13:21:03.030Z,2.67
2023-07-17T13:23:29.466Z,2.92
2023-07-17T13:25:55.896Z,2.67
2023-07-17T13:28:22.420Z,2.95
2023-07-17T13:31:03.467Z,2.72
2023-07-17T13:36:00.942Z,3.13
2023-07-17T13:38:28.703Z,2.67
2023-07-17T13:40:55.218Z,2.75
2023-07-17T13:43:21.679Z,2.55
2023-07-17T13:45:48.207Z,2.58
2023-07-17T13:48:14.830Z,2.92
2023-07-17T13:50:41.408Z,2.42
2023-07-17T13:53:08.004Z,2.90
2023-07-17T13:55:34.502Z,2.60
2023-07-17T13:58:01.063Z,2.63
2023-07-17T14:00:29.101Z,2.80
2023-07-17T14:02:55.780Z,2.70
2023-07-17T14:05:22.396Z,2.50
2023-07-17T14:07:48.889Z,2.65
2023-07-17T14:10:15.435Z,2.80
2023-07-17T14:12:41.964Z,2.75
2023-07-17T14:15:09.007Z,2.83
2023-07-17T14:17:35.506Z,2.50
2023-07-17T14:20:02.126Z,2.78
2023-07-17T14:22:28.673Z,2.58
2023-07-17T14:24:55.207Z,2.55
2023-07-17T14:27:21.666Z,3.08
2023-07-17T14:29:48.302Z,3.00
2023-07-17T14:32:14.962Z,3.05
2023-07-17T14:34:41.693Z,2.45
2023-07-17T14:37:08.193Z,2.80
2023-07-17T14:39:34.773Z,2.90
2023-07-17T14:42:01.236Z,3.25
2023-07-17T14:44:27.840Z,2.88
2023-07-17T14:46:54.557Z,2.85
2023-07-17T14:49:21.100Z,2.78
2023-07-17T14:51:47.665Z,2.70
2023-07-17T14:54:14.155Z,3.17
2023-07-17T14:56:40.805Z,2.92
2023-07-17T14:59:07.823Z,2.92
2023-07-17T15:01:34.394Z,3.00
2023-07-17T15:04:01.041Z,3.20
2023-07-17T15:06:27.578Z,2.92
2023-07-17T15:08:54.050Z,3.30
2023-07-17T15:11:25.572Z,2.83
2023-07-17T15:13:52.238Z,2.50
2023-07-17T15:16:19.038Z,3.00
2023-07-17T15:21:12.272Z,3.25
2023-07-17T15:23:38.769Z,2.67
2023-07-17T15:26:05.284Z,2.65
2023-07-17T15:28:31.757Z,2.53
2023-07-17T15:30:58.346Z,2.75
2023-07-17T15:33:26.634Z,2.45
2023-07-17T15:35:53.450Z,2.65
2023-07-17T15:38:20.227Z,2.80
2023-07-17T15:40:46.742Z,2.80
2023-07-17T15:43:13.298Z,2.38
2023-07-17T15:45:39.826Z,3.03
2023-07-17T15:48:06.871Z,2.92
2023-07-17T15:50:33.500Z,3.00
2023-07-17T15:53:00.037Z,2.38
2023-07-17T15:55:26.589Z,2.60
2023-07-17T15:57:53.083Z,2.83
2023-07-17T16:00:19.662Z,3.00
2023-07-17T16:02:46.197Z,2.70
2023-07-17T16:05:12.742Z,2.65
2023-07-17T16:07:39.280Z,2.70
2023-07-17T16:10:06.070Z,2.97
2023-07-17T16:12:32.560Z,2.80
2023-07-17T16:14:59.190Z,2.83
2023-07-17T16:17:25.849Z,2.60
2023-07-17T16:19:52.413Z,2.60
2023-07-17T16:22:18.927Z,2.88
2023-07-17T16:24:45.443Z,2.92
2023-07-17T16:27:11.922Z,3.10
2023-07-17T16:29:38.398Z,2.95
2023-07-17T16:32:05.116Z,2.83
2023-07-17T16:34:31.545Z,2.80
2023-07-17T16:36:58.016Z,3.10
2023-07-17T16:39:24.532Z,2.85
2023-07-17T16:41:51.059Z,2.58
2023-07-17T16:44:18.086Z,2.95
2023-07-17T16:46:44.751Z,3.10
2023-07-17T16:49:11.329Z,3.03
2023-07-17T16:51:37.799Z,2.40
2023-07-17T16:54:04.375Z,2.70
2023-07-17T16:56:31.081Z,2.90
2023-07-17T16:58:57.598Z,2.17
2023-07-17T17:01:24.152Z,2.05
2023-07-17T17:03:50.870Z,2.90
2023-07-17T17:06:18.005Z,2.30
2023-07-17T17:08:44.925Z,2.67
2023-07-17T17:11:11.932Z,2.00
2023-07-17T17:13:38.934Z,2.30
2023-07-17T17:16:05.431Z,1.90
2023-07-17T17:18:31.930Z,2.50
2023-07-17T17:20:58.448Z,2.40
2023-07-17T17:23:25.003Z,2.22
2023-07-17T17:25:51.487Z,2.10
2023-07-17T17:28:17.926Z,1.98
2023-07-17T17:30:44.521Z,2.10
2023-07-17T17:33:11.210Z,1.95
2023-07-17T17:35:39.272Z,1.80
2023-07-17T17:38:09.974Z,1.80
2023-07-17T17:40:39.277Z,1.88
2023-07-17T17:43:05.772Z,1.40
2023-07-17T17:45:32.407Z,1.88
2023-07-17T17:47:58.943Z,1.80
2023-07-17T17:50:25.438Z,2.10
2023-07-17T17:52:52.108Z,1.63
2023-07-17T17:55:18.593Z,1.80
2023-07-17T17:57:45.059Z,1.50
2023-07-17T18:00:13.123Z,1.65
2023-07-17T18:02:48.760Z,1.80
2023-07-17T18:05:15.347Z,1.90
2023-07-17T18:07:41.820Z,1.60
2023-07-17T18:10:08.601Z,1.50
2023-07-17T18:12:35.051Z,1.38
2023-07-17T18:15:01.558Z,1.50
2023-07-17T18:17:28.061Z,1.58
2023-07-17T18:19:54.559Z,1.63
2023-07-17T18:22:21.222Z,1.42
2023-07-17T18:24:48.703Z,1.30
2023-07-17T18:27:15.251Z,1.45
2023-07-17T18:29:41.902Z,1.40
2023-07-17T18:32:08.597Z,1.50
2023-07-17T18:34:35.181Z,1.20
2023-07-17T18:37:02.090Z,1.60
2023-07-17T18:39:29.040Z,1.25
2023-07-17T18:41:55.844Z,1.50
2023-07-17T18:44:22.357Z,1.50
2023-07-17T18:46:49.682Z,1.40
2023-07-17T18:49:16.497Z,1.52
2023-07-17T18:51:43.097Z,1.38
2023-07-17T18:54:09.623Z,1.40
2023-07-17T18:56:38.387Z,1.33
2023-07-17T18:59:18.129Z,1.20
2023-07-17T19:01:45.496Z,1.65
2023-07-17T19:04:12.269Z,1.40
2023-07-17T19:06:39.604Z,1.27
2023-07-17T19:11:33.955Z,1.20
2023-07-17T19:14:00.562Z,1.50
2023-07-17T19:16:27.243Z,1.48
2023-07-17T19:18:53.782Z,1.60
2023-07-17T19:21:20.554Z,1.40
2023-07-17T19:23:49.088Z,1.30
2023-07-17T19:26:17.256Z,1.30
2023-07-17T19:28:44.118Z,1.27
2023-07-17T19:31:11.131Z,1.30
2023-07-17T19:33:37.681Z,1.40
2023-07-17T19:36:05.992Z,1.40
2023-07-17T19:38:32.792Z,1.42
2023-07-17T19:40:59.957Z,1.30
2023-07-17T19:43:27.185Z,1.10
2023-07-17T19:48:20.333Z,1.30
2023-07-17T19:50:46.993Z,1.25
2023-07-17T19:53:13.757Z,1.10
2023-07-17T19:55:40.646Z,1.40
2023-07-17T19:58:07.752Z,1.35
2023-07-17T20:00:34.427Z,1.30
2023-07-17T20:03:01.230Z,1.50
2023-07-17T20:05:27.814Z,1.52
2023-07-17T20:07:54.505Z,1.15
2023-07-17T20:10:23.141Z,1.40
2023-07-17T20:33:43.706Z,1.33
2023-07-17T20:37:53.131Z,1.67
2023-07-17T21:02:42.048Z,1.67
2023-07-17T21:13:42.934Z,1.50
2023-07-17T21:18:56.191Z,1.80
2023-07-17T21:29:19.727Z,1.52
2023-07-17T21:32:05.300Z,1.60
2023-07-17T21:35:43.578Z,1.50
2023-07-17T21:38:27.494Z,1.75
2023-07-17T21:42:19.229Z,2.10
2023-07-17T21:48:51.235Z,1.40
2023-07-17T21:52:18.806Z,1.40
2023-07-17T21:55:37.574Z,1.52
2023-07-17T22:16:51.443Z,1.30
2023-07-17T22:19:37.964Z,1.20
2023-07-17T22:24:47.716Z,1.52
2023-07-17T22:30:55.433Z,1.40
2023-07-17T22:34:32.714Z,1.67
2023-07-17T22:41:17.833Z,1.60
2023-07-17T22:43:57.495Z,1.55
2023-07-17T22:47:05.409Z,1.60
2023-07-17T22:50:11.530Z,1.50
2023-07-17T22:57:47.270Z,1.60
2023-07-17T23:17:01.346Z,1.70
2023-07-17T23:21:08.174Z,1.25
2023-07-17T23:38:36.179Z,1.48
2023-07-17T23:41:17.649Z,1.30
2023-07-17T23:43:45.968Z,1.50
2023-07-17T23:46:18.353Z,1.65
